Time;durP1;ratioP1;P1;durP2;ratioP2;P2;SDS_P1;SDS_P2;PMS_P1;PMS_P2;Temp;Humidity;BMP_temperature;BMP_pressure;BME280_temperature;BME280_humidity;BME280_pressure;Samples;Min_cycle;Max_cycle;Signal;HPM_P1;HPM_P2
2023/07/18 00:00:12;;;;;;;18.63;9.85;;;15.10;99.90;;;;;;5042293;28;20261;-78
2023/07/18 00:02:39;;;;;;;20.73;11.40;;;15.10;99.90;;;;;;5039753;28;20259;-77
2023/07/18 00:05:07;;;;;;;19.73;10.38;;;15.00;99.90;;;;;;5028930;28;20212;-77
2023/07/18 00:07:35;;;;;;;16.38;11.15;;;15.00;99.90;;;;;;5044945;28;20242;-77
2023/07/18 00:10:02;;;;;;;19.85;12.52;;;15.00;99.90;;;;;;5045453;28;20216;-77
2023/07/18 00:12:28;;;;;;;14.43;11.23;;;15.00;99.90;;;;;;5032549;28;20280;-79
2023/07/18 00:14:57;;;;;;;14.30;10.50;;;15.00;99.90;;;;;;5033339;28;20663;-77
2023/07/18 00:17:24;;;;;;;19.38;10.60;;;15.00;99.90;;;;;;5034811;28;20208;-78
2023/07/18 00:19:52;;;;;;;15.60;11.15;;;15.00;99.90;;;;;;5035188;28;20223;-78
2023/07/18 00:22:19;;;;;;;11.68;10.55;;;15.00;99.90;;;;;;5038382;28;20204;-79
2023/07/18 00:24:46;;;;;;;14.57;10.02;;;14.90;99.90;;;;;;5035992;28;20219;-77
2023/07/18 00:27:16;;;;;;;15.80;12.35;;;14.80;99.90;;;;;;5034779;28;20209;-76
2023/07/18 00:29:43;;;;;;;15.35;12.68;;;14.80;99.90;;;;;;5036530;28;20611;-79
2023/07/18 00:32:11;;;;;;;16.35;10.98;;;14.80;99.90;;;;;;5037622;28;20291;-77
2023/07/18 00:34:40;;;;;;;19.13;12.95;;;14.70;99.90;;;;;;5040631;28;20220;-78
2023/07/18 00:37:07;;;;;;;18.92;11.23;;;14.70;99.90;;;;;;5043495;28;20207;-77
2023/07/18 00:39:34;;;;;;;15.98;11.43;;;14.70;99.90;;;;;;5042708;28;20237;-78
2023/07/18 00:42:01;;;;;;;19.70;11.40;;;14.70;99.90;;;;;;5039146;28;20205;-77
2023/07/18 00:44:28;;;;;;;23.27;11.35;;;14.80;99.90;;;;;;5052596;28;20287;-77
2023/07/18 00:46:55;;;;;;;15.70;11.80;;;14.70;99.90;;;;;;5044835;28;20200;-79
2023/07/18 00:49:24;;;;;;;15.35;10.85;;;14.70;99.90;;;;;;5038450;28;20211;-78
2023/07/18 00:51:51;;;;;;;18.25;12.45;;;14.70;99.90;;;;;;5040210;28;20303;-79
2023/07/18 00:54:18;;;;;;;27.25;12.88;;;14.70;99.90;;;;;;5045149;28;20226;-76
2023/07/18 00:56:46;;;;;;;18.40;11.95;;;14.60;99.90;;;;;;5043462;28;20652;-77
2023/07/18 00:59:17;;;;;;;20.30;12.05;;;14.60;99.90;;;;;;5036671;28;20286;-77
2023/07/18 01:01:45;;;;;;;19.67;11.77;;;14.60;99.90;;;;;;5044290;28;20216;-78
2023/07/18 01:04:13;;;;;;;21.85;13.25;;;14.60;99.90;;;;;;5040816;28;20219;-77
2023/07/18 01:06:42;;;;;;;21.40;14.52;;;14.60;99.90;;;;;;5042013;28;20199;-79
2023/07/18 01:09:09;;;;;;;17.90;13.45;;;14.50;99.90;;;;;;5041061;28;20732;-79
2023/07/18 01:11:37;;;;;;;20.58;13.85;;;14.60;99.90;;;;;;5039536;28;20228;-77
2023/07/18 01:14:04;;;;;;;23.55;13.63;;;14.60;99.90;;;;;;5042706;28;20224;-79
2023/07/18 01:16:31;;;;;;;119.13;92.40;;;14.60;99.90;;;;;;5038523;28;20206;-78
2023/07/18 01:18:58;;;;;;;26.42;18.90;;;14.50;99.90;;;;;;5038413;28;20290;-80
2023/07/18 01:21:28;;;;;;;22.05;14.25;;;14.50;99.90;;;;;;5043939;28;20227;-77
2023/07/18 01:23:55;;;;;;;17.58;11.65;;;14.40;99.90;;;;;;5038400;28;20774;-78
2023/07/18 01:26:22;;;;;;;19.90;14.30;;;14.40;99.90;;;;;;5038099;28;20210;-79
2023/07/18 01:28:49;;;;;;;20.80;13.57;;;14.50;99.90;;;;;;5044170;28;20240;-77
2023/07/18 01:31:15;;;;;;;19.73;12.23;;;14.40;99.90;;;;;;5043841;28;20670;-77
2023/07/18 01:33:43;;;;;;;20.55;14.07;;;14.40;99.90;;;;;;5039058;28;20706;-78
2023/07/18 01:36:11;;;;;;;21.80;13.38;;;14.40;99.90;;;;;;5040147;28;20241;-78
2023/07/18 01:38:39;;;;;;;15.85;13.20;;;14.40;99.90;;;;;;5039095;28;20200;-79
2023/07/18 01:41:07;;;;;;;24.52;14.07;;;14.40;99.90;;;;;;5042253;28;20223;-79
2023/07/18 01:43:34;;;;;;;19.75;11.82;;;14.40;99.90;;;;;;5040689;28;20674;-78
2023/07/18 01:46:02;;;;;;;19.33;14.93;;;14.40;99.90;;;;;;5037738;28;20674;-78
2023/07/18 01:48:29;;;;;;;19.65;13.35;;;14.30;99.90;;;;;;5042957;28;20203;-78
2023/07/18 01:50:58;;;;;;;25.40;14.52;;;14.40;99.90;;;;;;5037727;28;20206;-77
2023/07/18 01:53:27;;;;;;;19.92;14.02;;;14.30;99.90;;;;;;5035630;28;20223;-78
2023/07/18 01:55:59;;;;;;;25.25;13.25;;;14.30;99.90;;;;;;5035807;28;20212;-75
2023/07/18 01:58:26;;;;;;;19.55;14.43;;;14.30;99.90;;;;;;5040080;28;20722;-77
2023/07/18 02:00:53;;;;;;;21.08;13.77;;;14.30;99.90;;;;;;5042511;28;20227;-77
2023/07/18 02:03:20;;;;;;;20.35;14.90;;;14.30;99.90;;;;;;5038448;28;20263;-78
2023/07/18 02:05:47;;;;;;;23.67;15.13;;;14.30;99.90;;;;;;5040885;28;20627;-79
2023/07/18 02:08:14;;;;;;;19.17;13.90;;;14.20;99.90;;;;;;5039199;28;20231;-76
2023/07/18 02:10:41;;;;;;;18.23;15.18;;;14.10;99.90;;;;;;5035374;28;20210;-78
2023/07/18 02:13:10;;;;;;;18.90;13.63;;;14.10;99.90;;;;;;5043371;28;20251;-77
2023/07/18 02:15:37;;;;;;;20.55;14.13;;;14.10;99.90;;;;;;5034111;28;20235;-76
2023/07/18 02:18:03;;;;;;;20.88;15.00;;;14.10;99.90;;;;;;5038696;28;20650;-77
2023/07/18 02:20:30;;;;;;;21.40;13.85;;;14.00;99.90;;;;;;5033421;28;20220;-78
2023/07/18 02:23:00;;;;;;;27.58;16.48;;;14.00;99.90;;;;;;5038251;28;20735;-79
2023/07/18 02:25:27;;;;;;;20.45;14.35;;;14.00;99.90;;;;;;5042866;28;20629;-76
2023/07/18 02:27:54;;;;;;;22.75;15.75;;;14.00;99.90;;;;;;5040358;28;20718;-76
2023/07/18 02:30:22;;;;;;;25.83;14.50;;;14.00;99.90;;;;;;5041200;28;20297;-77
2023/07/18 02:32:51;;;;;;;23.55;14.75;;;13.90;99.90;;;;;;5039584;28;20744;-78
2023/07/18 02:35:19;;;;;;;22.83;16.13;;;14.00;99.90;;;;;;5043784;28;20207;-79
2023/07/18 02:37:46;;;;;;;22.95;16.10;;;13.90;99.90;;;;;;5039387;28;20204;-77
2023/07/18 02:40:15;;;;;;;20.30;14.93;;;14.00;99.90;;;;;;5041954;28;20311;-80
2023/07/18 02:42:42;;;;;;;27.23;14.95;;;13.90;99.90;;;;;;5036032;28;20588;-79
2023/07/18 02:45:09;;;;;;;19.55;15.32;;;14.00;99.90;;;;;;5039491;28;20719;-79
2023/07/18 02:47:38;;;;;;;20.88;14.27;;;14.00;99.90;;;;;;5045077;28;20277;-78
2023/07/18 02:50:06;;;;;;;23.50;15.30;;;14.00;99.90;;;;;;5035973;28;20751;-79
2023/07/18 02:52:41;;;;;;;24.67;14.50;;;14.00;99.90;;;;;;5040952;28;20196;-78
2023/07/18 02:55:08;;;;;;;21.25;14.13;;;14.00;99.90;;;;;;5041875;28;20290;-79
2023/07/18 02:57:35;;;;;;;20.67;14.93;;;14.00;99.90;;;;;;5044852;28;20290;-77
2023/07/18 03:00:06;;;;;;;24.58;14.63;;;14.00;99.90;;;;;;5043158;28;20212;-76
2023/07/18 03:02:34;;;;;;;21.65;16.50;;;13.90;99.90;;;;;;5053929;28;20196;-79
2023/07/18 03:05:02;;;;;;;24.90;15.20;;;14.00;99.90;;;;;;5045393;28;20247;-79
2023/07/18 03:07:29;;;;;;;18.48;14.15;;;14.00;99.90;;;;;;5043032;28;20232;-80
2023/07/18 03:09:58;;;;;;;23.02;13.90;;;14.00;99.90;;;;;;5045372;28;20211;-78
2023/07/18 03:12:25;;;;;;;24.73;14.57;;;14.00;99.90;;;;;;5037075;28;20283;-78
2023/07/18 03:14:52;;;;;;;18.88;14.55;;;14.00;99.90;;;;;;5039927;28;20693;-77
2023/07/18 03:17:20;;;;;;;24.98;18.17;;;14.00;99.90;;;;;;5043770;28;20201;-77
2023/07/18 03:19:47;;;;;;;20.92;14.25;;;14.00;99.90;;;;;;5044424;28;20208;-76
2023/07/18 03:22:15;;;;;;;20.48;13.75;;;14.00;99.90;;;;;;5037117;28;20238;-76
2023/07/18 03:24:43;;;;;;;21.23;15.00;;;14.00;99.90;;;;;;5046446;28;20254;-77
2023/07/18 03:27:09;;;;;;;23.50;16.17;;;13.90;99.90;;;;;;5040232;28;20203;-77
2023/07/18 03:29:36;;;;;;;19.67;15.18;;;13.90;99.90;;;;;;5041965;28;20217;-78
2023/07/18 03:32:04;;;;;;;19.17;14.50;;;13.90;99.90;;;;;;5044907;28;20283;-77
2023/07/18 03:34:31;;;;;;;20.80;15.90;;;13.90;99.90;;;;;;5036513;28;20219;-78
2023/07/18 03:36:57;;;;;;;23.63;14.93;;;13.90;99.90;;;;;;5044849;28;20236;-77
2023/07/18 03:39:26;;;;;;;23.00;16.33;;;13.90;99.90;;;;;;5038716;28;20682;-77
2023/07/18 03:41:53;;;;;;;21.23;16.10;;;13.90;99.90;;;;;;5037475;28;20578;-76
2023/07/18 03:44:20;;;;;;;22.25;15.80;;;14.00;99.90;;;;;;5040737;28;20758;-79
2023/07/18 03:46:47;;;;;;;22.05;14.15;;;14.00;99.90;;;;;;5040699;28;20238;-79
2023/07/18 03:49:14;;;;;;;20.50;13.50;;;14.00;99.90;;;;;;5039987;28;20286;-79
2023/07/18 03:51:41;;;;;;;20.30;15.65;;;14.00;99.90;;;;;;5036261;28;20287;-76
2023/07/18 03:54:09;;;;;;;17.80;13.10;;;14.00;99.90;;;;;;5044285;28;20231;-78
2023/07/18 03:56:38;;;;;;;20.88;13.70;;;14.10;99.90;;;;;;5039233;28;20289;-78
2023/07/18 03:59:04;;;;;;;20.42;14.05;;;14.10;99.90;;;;;;5035718;28;20208;-77
2023/07/18 04:01:31;;;;;;;19.25;13.32;;;14.20;99.90;;;;;;5033777;28;20251;-78
2023/07/18 04:03:58;;;;;;;19.77;13.68;;;14.20;99.90;;;;;;5035328;28;20231;-78
2023/07/18 04:06:25;;;;;;;15.50;12.20;;;14.30;99.90;;;;;;5037572;28;20283;-78
2023/07/18 04:08:53;;;;;;;18.50;12.25;;;14.30;99.90;;;;;;5039455;28;20295;-80
2023/07/18 04:11:22;;;;;;;20.77;14.00;;;14.30;99.90;;;;;;5047390;28;20200;-78
2023/07/18 04:13:50;;;;;;;16.02;13.18;;;14.40;99.90;;;;;;5042242;28;20220;-76
2023/07/18 04:16:17;;;;;;;20.85;13.30;;;14.40;99.90;;;;;;5044243;28;20231;-76
2023/07/18 04:18:44;;;;;;;17.25;13.65;;;14.40;99.90;;;;;;5040392;28;20208;-78
2023/07/18 04:21:11;;;;;;;18.08;12.07;;;14.40;99.90;;;;;;5043174;28;20311;-79
2023/07/18 04:23:38;;;;;;;22.20;13.88;;;14.50;99.90;;;;;;5046088;28;20246;-77
2023/07/18 04:26:06;;;;;;;16.65;11.38;;;14.60;99.90;;;;;;5042920;28;20284;-78
2023/07/18 04:28:36;;;;;;;15.73;10.35;;;14.70;99.90;;;;;;5044779;28;20732;-79
2023/07/18 04:31:04;;;;;;;15.43;12.40;;;14.80;99.90;;;;;;5042038;28;20253;-77
2023/07/18 04:33:36;;;;;;;19.65;11.20;;;14.90;99.90;;;;;;5049396;28;20219;-78
2023/07/18 04:36:05;;;;;;;18.13;10.40;;;15.10;99.90;;;;;;5038292;28;20290;-77
2023/07/18 04:38:32;;;;;;;14.80;10.07;;;15.50;99.90;;;;;;5042487;28;20209;-75
2023/07/18 04:40:59;;;;;;;12.20;10.10;;;15.80;99.90;;;;;;5039716;28;20288;-78
2023/07/18 04:43:27;;;;;;;10.60;9.43;;;16.20;99.90;;;;;;5047215;28;20229;-77
2023/07/18 04:45:54;;;;;;;12.98;9.32;;;16.30;99.90;;;;;;5037442;28;20453;-79
2023/07/18 04:48:22;;;;;;;17.45;8.50;;;16.30;99.90;;;;;;5044953;28;20230;-79
2023/07/18 04:50:53;;;;;;;15.70;10.33;;;16.20;99.90;;;;;;5040439;28;20265;-78
2023/07/18 04:53:20;;;;;;;10.50;7.85;;;16.00;99.90;;;;;;5041946;28;20460;-79
2023/07/18 04:55:51;;;;;;;17.52;10.63;;;16.00;99.90;;;;;;5040947;28;20229;-77
2023/07/18 04:58:19;;;;;;;13.88;9.50;;;16.10;99.90;;;;;;5038895;28;20224;-76
2023/07/18 05:00:46;;;;;;;11.50;8.45;;;16.10;99.90;;;;;;5040795;28;20204;-77
2023/07/18 05:03:13;;;;;;;10.38;8.65;;;16.30;99.90;;;;;;5035070;28;20225;-75
2023/07/18 05:05:41;;;;;;;19.85;9.98;;;16.40;99.90;;;;;;5033150;28;20198;-76
2023/07/18 05:08:08;;;;;;;15.27;8.93;;;16.70;99.90;;;;;;5035923;28;20313;-76
2023/07/18 05:10:35;;;;;;;10.63;7.75;;;17.00;99.90;;;;;;5036852;28;20294;-76
2023/07/18 05:13:02;;;;;;;10.90;8.73;;;17.30;99.90;;;;;;5036885;28;20279;-80
2023/07/18 05:15:29;;;;;;;13.93;10.00;;;17.10;99.90;;;;;;5037114;28;20200;-77
2023/07/18 05:17:57;;;;;;;12.38;8.90;;;17.00;99.90;;;;;;5046248;28;20575;-77
2023/07/18 05:20:24;;;;;;;10.27;7.75;;;16.80;99.90;;;;;;5041785;28;20704;-78
2023/07/18 05:22:52;;;;;;;11.00;9.38;;;16.80;99.90;;;;;;5036798;28;20312;-76
2023/07/18 05:25:19;;;;;;;12.73;10.50;;;16.60;99.90;;;;;;5041736;28;20301;-78
2023/07/18 05:27:46;;;;;;;14.83;9.13;;;16.60;99.90;;;;;;5039786;28;20289;-76
2023/07/18 05:30:15;;;;;;;14.38;8.65;;;16.70;99.90;;;;;;5040226;28;20448;-76
2023/07/18 05:32:43;;;;;;;9.32;6.97;;;17.00;99.90;;;;;;5035414;28;20198;-77
2023/07/18 05:35:11;;;;;;;23.43;9.80;;;17.30;99.90;;;;;;5031157;28;20199;-78
2023/07/18 05:37:38;;;;;;;11.10;7.40;;;17.50;99.90;;;;;;5036722;28;20461;-79
2023/07/18 05:40:09;;;;;;;10.00;7.70;;;17.50;99.90;;;;;;5033692;28;20543;-79
2023/07/18 05:42:36;;;;;;;10.80;7.93;;;17.60;99.90;;;;;;5036742;28;20505;-80
2023/07/18 05:45:04;;;;;;;11.87;7.60;;;17.60;99.90;;;;;;5036110;28;20546;-78
2023/07/18 05:47:31;;;;;;;17.73;8.90;;;17.60;99.90;;;;;;5036314;28;20468;-80
2023/07/18 05:49:59;;;;;;;10.13;6.53;;;18.10;99.90;;;;;;5031061;28;20934;-78
2023/07/18 05:52:26;;;;;;;10.10;8.57;;;18.70;99.90;;;;;;5040434;28;20439;-78
2023/07/18 05:54:55;;;;;;;13.93;7.70;;;19.00;99.90;;;;;;5040629;28;20479;-80
2023/07/18 05:57:23;;;;;;;13.00;7.10;;;19.40;99.90;;;;;;5040989;28;20551;-76
2023/07/18 05:59:50;;;;;;;11.80;7.60;;;19.70;99.90;;;;;;5041555;28;20884;-78
2023/07/18 06:02:17;;;;;;;12.73;7.60;;;19.90;99.90;;;;;;5033767;28;20569;-76
2023/07/18 06:04:44;;;;;;;11.20;7.37;;;20.10;99.90;;;;;;5040227;28;20845;-76
2023/07/18 06:07:11;;;;;;;8.40;6.50;;;20.10;99.90;;;;;;5034289;28;20455;-79
2023/07/18 06:09:38;;;;;;;13.43;6.73;;;20.20;99.90;;;;;;5040335;28;20927;-79
2023/07/18 06:12:07;;;;;;;9.40;7.60;;;20.20;99.90;;;;;;5036658;28;20494;-77
2023/07/18 06:14:35;;;;;;;8.23;6.10;;;20.20;99.90;;;;;;5043116;28;20552;-78
2023/07/18 06:17:03;;;;;;;15.10;8.30;;;20.60;99.90;;;;;;5037250;28;20446;-78
2023/07/18 06:19:30;;;;;;;14.17;8.57;;;21.00;99.90;;;;;;5035444;28;20456;-76
2023/07/18 06:21:57;;;;;;;14.30;8.07;;;21.80;99.90;;;;;;5037383;28;20524;-74
2023/07/18 06:24:24;;;;;;;15.63;10.93;;;22.40;99.90;;;;;;5041476;28;20498;-77
2023/07/18 06:26:51;;;;;;;18.33;10.40;;;22.80;99.90;;;;;;5037223;28;20461;-75
2023/07/18 06:29:19;;;;;;;15.43;11.60;;;22.90;99.90;;;;;;5043390;28;20528;-75
2023/07/18 06:31:48;;;;;;;8.30;5.63;;;22.70;99.90;;;;;;5039220;28;20518;-76
2023/07/18 06:34:15;;;;;;;12.23;7.77;;;22.60;99.90;;;;;;5042452;28;20459;-76
2023/07/18 06:36:41;;;;;;;9.33;6.97;;;22.80;99.90;;;;;;5044833;28;20512;-75
2023/07/18 06:39:08;;;;;;;10.83;7.67;;;23.50;99.90;;;;;;5045012;28;20453;-74
2023/07/18 06:41:35;;;;;;;14.60;10.13;;;24.50;99.90;;;;;;5031842;28;20886;-76
2023/07/18 06:44:05;;;;;;;12.10;8.03;;;25.00;99.20;;;;;;5038458;28;20584;-76
2023/07/18 06:46:32;;;;;;;11.87;7.53;;;24.70;98.00;;;;;;5038095;28;20451;-76
2023/07/18 06:49:00;;;;;;;10.70;6.43;;;24.20;99.90;;;;;;5039860;28;20441;-75
2023/07/18 06:51:28;;;;;;;8.17;4.60;;;24.40;99.90;;;;;;5037883;28;20777;-74
2023/07/18 06:53:55;;;;;;;13.73;7.07;;;24.70;99.30;;;;;;5041506;28;20467;-75
2023/07/18 06:56:22;;;;;;;5.93;4.27;;;25.60;97.50;;;;;;5038993;28;20445;-74
2023/07/18 06:58:49;;;;;;;8.33;4.90;;;26.10;96.00;;;;;;5034021;28;20461;-76
2023/07/18 07:01:15;;;;;;;30.37;19.70;;;26.20;94.90;;;;;;5034780;28;20457;-75
2023/07/18 07:03:42;;;;;;;27.53;18.27;;;26.90;94.40;;;;;;5040139;28;20545;-74
2023/07/18 07:06:16;;;;;;;16.53;10.60;;;27.50;93.40;;;;;;5038400;28;20456;-75
2023/07/18 07:08:43;;;;;;;15.17;9.50;;;27.40;92.10;;;;;;5040979;28;20508;-77
2023/07/18 07:11:11;;;;;;;21.57;12.83;;;27.60;92.30;;;;;;5039226;28;20527;-74
2023/07/18 07:13:38;;;;;;;9.37;7.40;;;27.80;91.70;;;;;;5040803;28;20501;-75
2023/07/18 07:16:06;;;;;;;27.10;16.77;;;28.10;91.40;;;;;;5039853;28;20447;-71
2023/07/18 07:18:34;;;;;;;10.53;7.70;;;27.80;91.30;;;;;;5040811;28;20841;-73
2023/07/18 07:21:01;;;;;;;16.83;9.73;;;27.90;91.00;;;;;;5044183;28;20454;-74
2023/07/18 07:23:29;;;;;;;37.77;29.93;;;28.10;91.30;;;;;;5037934;28;20507;-75
2023/07/18 07:25:56;;;;;;;13.10;5.80;;;28.80;90.30;;;;;;5048415;28;20466;-73
2023/07/18 07:28:23;;;;;;;13.20;7.37;;;28.40;90.10;;;;;;5038720;28;20477;-74
2023/07/18 07:30:51;;;;;;;9.07;5.07;;;29.10;90.60;;;;;;5040152;28;20446;-74
2023/07/18 07:33:18;;;;;;;9.43;4.97;;;29.40;88.70;;;;;;5039580;28;20450;-74
2023/07/18 07:35:46;;;;;;;11.80;5.93;;;29.20;89.50;;;;;;5037358;28;20534;-73
2023/07/18 07:38:13;;;;;;;7.17;4.50;;;29.30;88.30;;;;;;5042849;28;20441;-75
2023/07/18 07:40:41;;;;;;;16.17;4.97;;;29.30;89.30;;;;;;5032605;28;20530;-73
2023/07/18 07:43:10;;;;;;;13.37;7.00;;;29.10;89.30;;;;;;5042096;28;20572;-77
2023/07/18 07:45:37;;;;;;;11.20;5.60;;;28.00;90.00;;;;;;5036049;28;20482;-75
2023/07/18 07:48:05;;;;;;;14.23;6.10;;;27.30;91.60;;;;;;5040089;28;20451;-75
2023/07/18 07:50:33;;;;;;;12.10;4.67;;;27.00;92.30;;;;;;5041402;28;20431;-75
2023/07/18 07:53:00;;;;;;;12.03;5.43;;;27.10;92.40;;;;;;5039601;28;20541;-75
2023/07/18 07:55:27;;;;;;;11.70;4.70;;;27.20;92.00;;;;;;5041274;28;20443;-74
2023/07/18 07:57:56;;;;;;;11.03;4.43;;;26.80;92.50;;;;;;5042541;28;20540;-74
2023/07/18 08:00:23;;;;;;;13.93;5.67;;;26.80;92.90;;;;;;5039286;28;20500;-73
2023/07/18 08:02:50;;;;;;;16.00;5.00;;;26.50;93.10;;;;;;5042476;28;20549;-73
2023/07/18 08:05:16;;;;;;;10.90;5.10;;;26.60;93.40;;;;;;5038014;28;20471;-74
2023/07/18 08:07:43;;;;;;;20.87;5.07;;;27.00;92.60;;;;;;5041973;28;20450;-75
2023/07/18 08:10:11;;;;;;;13.97;3.80;;;28.20;91.90;;;;;;5038430;28;20481;-73
2023/07/18 08:12:38;;;;;;;15.37;8.87;;;29.00;90.20;;;;;;5037985;28;20981;-74
2023/07/18 08:15:08;;;;;;;46.63;28.77;;;29.60;88.40;;;;;;5041120;28;20453;-73
2023/07/18 08:17:35;;;;;;;12.10;4.17;;;30.40;86.20;;;;;;5037500;28;20447;-75
2023/07/18 08:20:04;;;;;;;11.90;7.43;;;31.40;83.60;;;;;;5040522;28;20441;-75
2023/07/18 08:22:30;;;;;;;10.00;4.30;;;32.00;80.40;;;;;;5035068;28;20574;-70
2023/07/18 08:24:58;;;;;;;9.03;3.90;;;32.10;80.70;;;;;;5043465;28;20549;-73
2023/07/18 08:27:24;;;;;;;12.97;4.30;;;32.60;77.90;;;;;;5036070;28;20521;-75
2023/07/18 08:29:51;;;;;;;13.80;6.00;;;32.60;75.50;;;;;;5043096;28;20540;-74
2023/07/18 08:32:20;;;;;;;10.40;7.63;;;32.00;75.40;;;;;;5037834;28;20842;-73
2023/07/18 08:34:47;;;;;;;43.17;32.57;;;31.40;77.80;;;;;;5037959;28;20480;-72
2023/07/18 08:37:13;;;;;;;9.37;4.00;;;30.80;78.10;;;;;;5032571;28;20447;-74
2023/07/18 08:39:40;;;;;;;6.70;2.90;;;31.20;79.20;;;;;;5038614;28;20501;-72
2023/07/18 08:42:08;;;;;;;11.33;3.90;;;31.80;76.60;;;;;;5038201;28;20576;-73
2023/07/18 08:44:36;;;;;;;5.17;3.47;;;32.20;75.40;;;;;;5035073;28;20467;-73
2023/07/18 08:47:05;;;;;;;6.17;3.07;;;32.50;73.90;;;;;;5041590;28;20442;-73
2023/07/18 08:49:35;;;;;;;8.57;2.70;;;32.10;72.00;;;;;;5036694;28;20489;-72
2023/07/18 08:52:02;;;;;;;6.83;2.40;;;31.70;73.30;;;;;;5035054;28;20505;-72
2023/07/18 08:54:29;;;;;;;5.27;2.90;;;31.70;74.00;;;;;;5023642;28;20467;-71
2023/07/18 08:56:57;;;;;;;16.13;8.07;;;31.30;73.80;;;;;;5033736;28;20577;-71
2023/07/18 08:59:25;;;;;;;14.43;9.33;;;31.00;74.90;;;;;;5029864;28;20489;-72
2023/07/18 09:01:53;;;;;;;6.10;2.13;;;30.60;75.50;;;;;;5038476;28;20541;-74
2023/07/18 09:04:20;;;;;;;6.40;2.80;;;30.70;76.30;;;;;;5042403;28;20503;-73
2023/07/18 09:06:49;;;;;;;21.67;18.57;;;31.70;74.80;;;;;;5038664;28;20525;-75
2023/07/18 09:09:18;;;;;;;13.23;6.00;;;32.60;73.00;;;;;;5032081;28;20530;-74
2023/07/18 09:11:57;;;;;;;6.83;4.67;;;33.20;71.90;;;;;;5040215;28;20943;-74
2023/07/18 09:14:26;;;;;;;4.10;2.60;;;33.10;70.20;;;;;;5040518;28;20561;-74
2023/07/18 09:16:54;;;;;;;7.77;2.80;;;32.50;70.90;;;;;;5041465;28;20534;-73
2023/07/18 09:19:35;;;;;;;7.40;4.23;;;32.60;71.60;;;;;;5039946;28;20446;-74
2023/07/18 09:22:04;;;;;;;10.70;3.57;;;32.70;71.10;;;;;;5035286;28;20468;-74
2023/07/18 09:24:35;;;;;;;8.90;3.20;;;31.90;71.30;;;;;;5036291;28;20467;-75
2023/07/18 09:27:02;;;;;;;9.07;3.47;;;30.00;74.70;;;;;;5033044;28;20530;-74
2023/07/18 09:29:30;;;;;;;8.97;5.03;;;30.30;76.10;;;;;;5034950;28;20521;-74
2023/07/18 09:31:57;;;;;;;10.27;2.77;;;30.50;77.40;;;;;;5032738;28;20487;-74
2023/07/18 09:34:27;;;;;;;7.63;3.13;;;30.20;75.60;;;;;;5039709;28;20546;-75
2023/07/18 09:36:59;;;;;;;6.17;3.57;;;30.10;76.20;;;;;;5041371;28;20962;-74
2023/07/18 09:39:29;;;;;;;8.13;3.83;;;30.40;76.20;;;;;;5035023;28;20534;-73
2023/07/18 09:41:56;;;;;;;17.17;9.70;;;30.50;74.80;;;;;;5037359;28;20451;-73
2023/07/18 09:44:26;;;;;;;10.23;3.40;;;30.30;75.70;;;;;;5038825;28;20545;-74
2023/07/18 09:46:53;;;;;;;6.87;3.00;;;30.60;75.70;;;;;;5036850;28;20454;-72
2023/07/18 09:49:22;;;;;;;9.00;3.90;;;30.40;75.00;;;;;;5044433;28;20450;-76
2023/07/18 09:51:53;;;;;;;10.17;3.10;;;29.50;77.40;;;;;;5031292;28;20446;-76
2023/07/18 09:54:21;;;;;;;19.67;16.30;;;29.40;78.60;;;;;;5036790;28;20468;-72
2023/07/18 09:56:59;;;;;;;5.40;2.80;;;28.80;77.40;;;;;;5034711;28;20455;-76
2023/07/18 09:59:28;;;;;;;6.50;2.87;;;28.70;78.00;;;;;;5040387;28;20530;-73
2023/07/18 10:01:56;;;;;;;6.40;3.37;;;28.60;78.80;;;;;;5037150;28;20477;-75
2023/07/18 10:04:23;;;;;;;5.57;2.13;;;28.20;78.10;;;;;;5036672;28;20487;-74
2023/07/18 10:06:56;;;;;;;6.50;3.43;;;28.70;80.60;;;;;;5039981;28;20596;-73
2023/07/18 10:09:24;;;;;;;5.70;2.67;;;29.10;77.90;;;;;;5043824;28;20442;-73
2023/07/18 10:12:12;;;;;;;8.40;3.90;;;29.10;78.40;;;;;;5044658;28;20490;-74
2023/07/18 10:14:50;;;;;;;6.43;2.40;;;29.30;77.10;;;;;;5041787;28;20463;-78
2023/07/18 10:17:35;;;;;;;11.60;5.87;;;29.70;77.60;;;;;;5043584;28;20933;-74
2023/07/18 10:20:13;;;;;;;8.13;3.60;;;29.90;76.60;;;;;;5039429;28;20446;-75
2023/07/18 10:22:49;;;;;;;5.13;2.80;;;28.50;77.30;;;;;;5041969;28;20486;-74
2023/07/18 10:25:18;;;;;;;4.03;2.17;;;28.00;79.20;;;;;;5018857;28;20446;-75
2023/07/18 10:27:48;;;;;;;6.57;2.13;;;27.10;81.80;;;;;;5041934;28;20889;-73
2023/07/18 10:30:17;;;;;;;6.40;2.13;;;27.40;83.20;;;;;;5040711;28;20821;-73
2023/07/18 10:32:51;;;;;;;6.00;3.13;;;27.70;81.70;;;;;;5040566;28;20446;-75
2023/07/18 10:35:19;;;;;;;4.40;2.20;;;27.30;81.20;;;;;;5035848;28;20450;-74
2023/07/18 10:37:50;;;;;;;4.10;2.40;;;27.00;82.70;;;;;;5040749;28;20953;-74
2023/07/18 10:40:35;;;;;;;6.33;2.77;;;26.70;83.70;;;;;;5043586;28;20500;-74
2023/07/18 10:43:04;;;;;;;6.90;2.90;;;26.60;84.00;;;;;;5041565;28;20485;-75
2023/07/18 10:45:37;;;;;;;11.27;3.50;;;26.60;83.90;;;;;;5048359;28;20473;-73
2023/07/18 10:48:11;;;;;;;6.40;2.00;;;26.80;84.50;;;;;;5042173;28;20451;-73
2023/07/18 10:50:38;;;;;;;10.10;3.20;;;26.80;83.10;;;;;;5023114;28;20446;-73
2023/07/18 10:53:05;;;;;;;5.80;2.27;;;26.80;84.20;;;;;;5039827;28;20485;-73
2023/07/18 10:55:32;;;;;;;5.30;2.50;;;27.00;84.90;;;;;;5042604;28;20549;-73
2023/07/18 10:57:59;;;;;;;8.50;2.80;;;27.00;84.00;;;;;;5041231;28;20930;-75
2023/07/18 11:00:27;;;;;;;4.27;1.93;;;26.90;84.60;;;;;;5043752;28;20537;-73
2023/07/18 11:02:54;;;;;;;8.83;2.30;;;26.60;84.40;;;;;;5039710;28;20556;-75
2023/07/18 11:05:21;;;;;;;6.27;2.20;;;26.70;85.10;;;;;;5042701;28;20520;-76
2023/07/18 11:07:49;;;;;;;5.33;1.90;;;26.80;85.30;;;;;;5040976;28;20438;-75
2023/07/18 11:10:16;;;;;;;5.43;2.47;;;26.80;84.80;;;;;;5039939;28;20454;-73
2023/07/18 11:12:44;;;;;;;6.50;2.60;;;26.60;85.10;;;;;;5040723;28;20455;-75
2023/07/18 11:15:14;;;;;;;6.90;3.00;;;26.50;85.00;;;;;;5038375;28;20453;-75
2023/07/18 11:17:44;;;;;;;4.70;2.00;;;26.50;84.50;;;;;;5045352;28;20968;-73
2023/07/18 11:20:12;;;;;;;3.40;2.10;;;26.60;85.00;;;;;;5038658;28;20461;-76
2023/07/18 11:22:40;;;;;;;5.10;2.40;;;26.60;85.00;;;;;;5044041;28;20522;-74
2023/07/18 11:25:08;;;;;;;7.50;2.10;;;26.70;85.10;;;;;;5045832;28;20457;-75
2023/07/18 11:27:36;;;;;;;7.20;5.50;;;26.80;85.20;;;;;;5048276;28;20461;-76
2023/07/18 11:30:08;;;;;;;5.73;2.30;;;26.70;84.40;;;;;;5040981;28;20473;-74
2023/07/18 11:32:39;;;;;;;4.27;1.93;;;26.90;83.70;;;;;;5039570;28;20490;-74
2023/07/18 11:35:09;;;;;;;5.67;2.33;;;27.10;84.60;;;;;;5045483;28;20522;-73
2023/07/18 11:37:38;;;;;;;5.77;2.00;;;27.00;84.00;;;;;;5042287;28;20514;-74
2023/07/18 11:40:06;;;;;;;6.53;2.47;;;26.90;84.70;;;;;;5043761;28;20443;-75
2023/07/18 11:42:47;;;;;;;6.47;2.80;;;26.40;82.80;;;;;;5041414;28;20530;-75
2023/07/18 11:45:17;;;;;;;7.60;2.50;;;26.20;84.40;;;;;;5039592;28;20784;-74
2023/07/18 11:47:45;;;;;;;6.07;2.00;;;26.10;84.10;;;;;;5044997;28;20447;-74
2023/07/18 11:50:14;;;;;;;14.47;2.87;;;26.00;84.30;;;;;;5042520;28;20920;-72
2023/07/18 11:52:42;;;;;;;6.67;2.30;;;25.60;84.30;;;;;;5042294;28;20448;-74
2023/07/18 11:55:09;;;;;;;6.30;2.37;;;25.20;85.60;;;;;;5039488;28;20447;-72
2023/07/18 11:57:36;;;;;;;4.57;2.03;;;24.90;86.30;;;;;;5046071;28;20456;-75
2023/07/18 12:00:04;;;;;;;4.87;2.33;;;24.30;86.70;;;;;;5042186;28;20529;-75
2023/07/18 12:02:31;;;;;;;7.27;2.40;;;24.10;88.90;;;;;;5044254;28;20445;-76
2023/07/18 12:04:58;;;;;;;4.33;2.17;;;24.00;90.10;;;;;;5038555;28;20562;-75
2023/07/18 12:07:26;;;;;;;6.87;2.20;;;24.00;90.00;;;;;;5043922;28;20509;-75
2023/07/18 12:09:54;;;;;;;3.90;2.03;;;24.00;90.10;;;;;;5043869;28;20439;-75
2023/07/18 12:12:23;;;;;;;3.83;2.40;;;23.90;91.00;;;;;;5040359;28;20446;-74
2023/07/18 12:14:50;;;;;;;6.10;2.60;;;23.70;92.30;;;;;;5038748;28;20470;-74
2023/07/18 12:17:17;;;;;;;4.40;2.30;;;23.50;94.10;;;;;;5040316;28;20446;-73
2023/07/18 12:19:45;;;;;;;6.07;2.60;;;23.30;96.10;;;;;;5038506;28;20964;-74
2023/07/18 12:22:13;;;;;;;5.53;3.30;;;23.10;98.10;;;;;;5039481;28;20438;-73
2023/07/18 12:24:41;;;;;;;5.23;3.03;;;22.90;99.90;;;;;;5032454;28;20513;-73
2023/07/18 12:27:09;;;;;;;12.80;5.40;;;22.70;99.90;;;;;;5037198;28;21248;-74
2023/07/18 12:29:36;;;;;;;7.37;4.33;;;22.40;99.90;;;;;;5038409;28;20473;-74
2023/07/18 12:32:03;;;;;;;10.43;5.37;;;22.10;99.90;;;;;;5039189;28;20765;-77
2023/07/18 12:34:30;;;;;;;7.43;4.73;;;21.80;99.90;;;;;;5038075;28;20494;-77
2023/07/18 12:36:57;;;;;;;12.10;5.00;;;21.70;99.90;;;;;;5035791;28;20497;-76
2023/07/18 12:39:24;;;;;;;8.50;4.20;;;21.60;99.90;;;;;;5041305;28;20533;-76